sensor_id;sensor_type;location;lat;lon;timestamp;P1;durP1;ratioP1;P2;durP2;ratioP2
57321;SDS011;43159;51.006;18.224;2023-05-10T00:01:39;11.00;;;3.50;;
57321;SDS011;43159;51.006;18.224;2023-05-10T00:11:22;11.80;;;4.40;;
57321;SDS011;43159;51.006;18.224;2023-05-10T00:21:05;10.60;;;4.50;;
57321;SDS011;43159;51.006;18.224;2023-05-10T00:30:47;13.10;;;5.10;;
57321;SDS011;43159;51.006;18.224;2023-05-10T00:40:29;13.40;;;3.40;;
57321;SDS011;43159;51.006;18.224;2023-05-10T00:50:12;11.10;;;4.90;;
57321;SDS011;43159;51.006;18.224;2023-05-10T00:59:56;10.90;;;3.60;;
57321;SDS011;43159;51.006;18.224;2023-05-10T01:09:39;12.60;;;4.40;;
57321;SDS011;43159;51.006;18.224;2023-05-10T01:19:24;9.20;;;3.80;;
57321;SDS011;43159;51.006;18.224;2023-05-10T01:49:45;10.10;;;4.10;;
57321;SDS011;43159;51.006;18.224;2023-05-10T01:59:34;13.20;;;4.40;;
57321;SDS011;43159;51.006;18.224;2023-05-10T02:09:23;24.90;;;7.70;;
57321;SDS011;43159;51.006;18.224;2023-05-10T02:19:07;12.10;;;3.90;;
57321;SDS011;43159;51.006;18.224;2023-05-10T02:28:51;13.40;;;4.80;;
57321;SDS011;43159;51.006;18.224;2023-05-10T02:38:35;12.30;;;5.60;;
57321;SDS011;43159;51.006;18.224;2023-05-10T02:48:18;13.30;;;4.90;;
57321;SDS011;43159;51.006;18.224;2023-05-10T03:05:21;5.30;;;2.20;;
57321;SDS011;43159;51.006;18.224;2023-05-10T03:25:48;11.10;;;4.00;;
57321;SDS011;43159;51.006;18.224;2023-05-10T03:35:33;15.70;;;4.40;;
57321;SDS011;43159;51.006;18.224;2023-05-10T03:45:16;11.00;;;4.50;;
57321;SDS011;43159;51.006;18.224;2023-05-10T03:54:58;10.10;;;4.00;;
57321;SDS011;43159;51.006;18.224;2023-05-10T04:04:41;10.90;;;4.50;;
57321;SDS011;43159;51.006;18.224;2023-05-10T04:14:23;11.40;;;4.00;;
57321;SDS011;43159;51.006;18.224;2023-05-10T04:24:06;9.00;;;3.80;;
57321;SDS011;43159;51.006;18.224;2023-05-10T04:33:47;18.70;;;4.30;;
57321;SDS011;43159;51.006;18.224;2023-05-10T04:43:32;25.00;;;4.30;;
57321;SDS011;43159;51.006;18.224;2023-05-10T04:53:14;15.90;;;4.40;;
57321;SDS011;43159;51.006;18.224;2023-05-10T05:02:57;12.30;;;4.10;;
57321;SDS011;43159;51.006;18.224;2023-05-10T05:12:41;9.20;;;3.50;;
57321;SDS011;43159;51.006;18.224;2023-05-10T05:22:25;10.10;;;3.60;;
57321;SDS011;43159;51.006;18.224;2023-05-10T05:32:20;8.90;;;2.80;;
57321;SDS011;43159;51.006;18.224;2023-05-10T05:42:08;7.30;;;2.50;;
57321;SDS011;43159;51.006;18.224;2023-05-10T05:51:50;9.00;;;3.70;;
57321;SDS011;43159;51.006;18.224;2023-05-10T06:01:32;10.00;;;3.00;;
57321;SDS011;43159;51.006;18.224;2023-05-10T06:11:14;8.90;;;3.40;;
57321;SDS011;43159;51.006;18.224;2023-05-10T06:20:56;8.70;;;2.80;;
57321;SDS011;43159;51.006;18.224;2023-05-10T06:30:39;10.00;;;3.70;;
57321;SDS011;43159;51.006;18.224;2023-05-10T06:40:22;9.40;;;3.10;;
57321;SDS011;43159;51.006;18.224;2023-05-10T06:50:06;13.10;;;2.70;;
57321;SDS011;43159;51.006;18.224;2023-05-10T06:59:51;7.50;;;2.80;;
57321;SDS011;43159;51.006;18.224;2023-05-10T07:09:34;7.60;;;2.50;;
57321;SDS011;43159;51.006;18.224;2023-05-10T07:19:15;8.50;;;2.90;;
57321;SDS011;43159;51.006;18.224;2023-05-10T07:28:59;7.80;;;2.40;;
57321;SDS011;43159;51.006;18.224;2023-05-10T07:38:42;8.20;;;2.70;;
57321;SDS011;43159;51.006;18.224;2023-05-10T07:48:25;9.70;;;2.40;;
57321;SDS011;43159;51.006;18.224;2023-05-10T07:58:09;5.80;;;2.10;;
57321;SDS011;43159;51.006;18.224;2023-05-10T08:07:51;8.30;;;2.60;;
57321;SDS011;43159;51.006;18.224;2023-05-10T08:17:34;8.90;;;2.20;;
57321;SDS011;43159;51.006;18.224;2023-05-10T08:27:16;8.90;;;2.90;;
57321;SDS011;43159;51.006;18.224;2023-05-10T08:36:58;5.00;;;2.00;;
57321;SDS011;43159;51.006;18.224;2023-05-10T08:46:41;8.20;;;2.90;;
57321;SDS011;43159;51.006;18.224;2023-05-10T08:56:31;9.00;;;2.90;;
57321;SDS011;43159;51.006;18.224;2023-05-10T09:06:13;6.40;;;2.10;;
57321;SDS011;43159;51.006;18.224;2023-05-10T09:15:56;6.20;;;2.10;;
57321;SDS011;43159;51.006;18.224;2023-05-10T09:25:41;14.80;;;3.30;;
57321;SDS011;43159;51.006;18.224;2023-05-10T09:42:53;7.10;;;2.30;;
57321;SDS011;43159;51.006;18.224;2023-05-10T09:52:48;4.80;;;1.90;;
57321;SDS011;43159;51.006;18.224;2023-05-10T10:02:32;7.40;;;2.60;;
57321;SDS011;43159;51.006;18.224;2023-05-10T10:12:17;11.20;;;2.30;;
57321;SDS011;43159;51.006;18.224;2023-05-10T10:22:00;7.30;;;2.30;;
57321;SDS011;43159;51.006;18.224;2023-05-10T10:31:55;5.80;;;2.00;;
57321;SDS011;43159;51.006;18.224;2023-05-10T10:41:55;8.00;;;2.40;;
57321;SDS011;43159;51.006;18.224;2023-05-10T11:02:43;6.90;;;2.10;;
57321;SDS011;43159;51.006;18.224;2023-05-10T11:13:04;7.90;;;2.50;;
57321;SDS011;43159;51.006;18.224;2023-05-10T11:23:12;7.40;;;2.10;;
57321;SDS011;43159;51.006;18.224;2023-05-10T11:33:02;5.50;;;2.00;;
57321;SDS011;43159;51.006;18.224;2023-05-10T11:42:44;6.80;;;2.20;;
57321;SDS011;43159;51.006;18.224;2023-05-10T11:52:28;9.10;;;2.70;;
57321;SDS011;43159;51.006;18.224;2023-05-10T12:02:12;7.70;;;2.10;;
57321;SDS011;43159;51.006;18.224;2023-05-10T12:11:57;4.50;;;1.60;;
57321;SDS011;43159;51.006;18.224;2023-05-10T12:21:45;8.10;;;2.60;;
57321;SDS011;43159;51.006;18.224;2023-05-10T12:32:11;8.10;;;2.10;;
57321;SDS011;43159;51.006;18.224;2023-05-10T12:41:47;7.00;;;2.30;;
57321;SDS011;43159;51.006;18.224;2023-05-10T12:51:30;6.30;;;2.50;;
57321;SDS011;43159;51.006;18.224;2023-05-10T13:01:15;7.60;;;1.90;;
57321;SDS011;43159;51.006;18.224;2023-05-10T13:11:02;12.70;;;2.40;;
57321;SDS011;43159;51.006;18.224;2023-05-10T13:20:44;7.90;;;2.80;;
57321;SDS011;43159;51.006;18.224;2023-05-10T13:30:26;10.80;;;2.20;;
57321;SDS011;43159;51.006;18.224;2023-05-10T13:40:08;6.00;;;2.30;;
57321;SDS011;43159;51.006;18.224;2023-05-10T13:49:52;10.80;;;2.70;;
57321;SDS011;43159;51.006;18.224;2023-05-10T13:59:37;7.70;;;2.30;;
57321;SDS011;43159;51.006;18.224;2023-05-10T14:09:20;5.70;;;1.90;;
57321;SDS011;43159;51.006;18.224;2023-05-10T14:19:03;6.60;;;2.40;;
57321;SDS011;43159;51.006;18.224;2023-05-10T14:28:47;13.60;;;2.60;;
57321;SDS011;43159;51.006;18.224;2023-05-10T14:38:32;5.60;;;1.80;;
57321;SDS011;43159;51.006;18.224;2023-05-10T14:48:14;17.80;;;3.20;;
57321;SDS011;43159;51.006;18.224;2023-05-10T14:58:00;5.10;;;1.70;;
57321;SDS011;43159;51.006;18.224;2023-05-10T15:07:43;7.00;;;2.30;;
57321;SDS011;43159;51.006;18.224;2023-05-10T15:17:26;5.40;;;2.30;;
57321;SDS011;43159;51.006;18.224;2023-05-10T15:27:08;7.80;;;2.80;;
57321;SDS011;43159;51.006;18.224;2023-05-10T15:36:51;9.40;;;2.80;;
57321;SDS011;43159;51.006;18.224;2023-05-10T15:46:33;8.50;;;2.40;;
57321;SDS011;43159;51.006;18.224;2023-05-10T15:56:15;20.80;;;3.10;;
57321;SDS011;43159;51.006;18.224;2023-05-10T16:05:59;9.20;;;2.30;;
57321;SDS011;43159;51.006;18.224;2023-05-10T16:15:43;14.10;;;4.00;;
57321;SDS011;43159;51.006;18.224;2023-05-10T16:25:26;8.40;;;3.10;;
57321;SDS011;43159;51.006;18.224;2023-05-10T16:35:08;21.70;;;3.30;;
57321;SDS011;43159;51.006;18.224;2023-05-10T16:44:52;9.10;;;3.50;;
57321;SDS011;43159;51.006;18.224;2023-05-10T16:54:39;10.30;;;4.40;;
57321;SDS011;43159;51.006;18.224;2023-05-10T17:04:21;10.60;;;4.20;;
57321;SDS011;43159;51.006;18.224;2023-05-10T17:14:03;11.10;;;5.00;;
57321;SDS011;43159;51.006;18.224;2023-05-10T17:23:45;16.80;;;8.10;;
57321;SDS011;43159;51.006;18.224;2023-05-10T17:33:28;11.60;;;5.00;;
57321;SDS011;43159;51.006;18.224;2023-05-10T17:43:10;20.10;;;6.60;;
57321;SDS011;43159;51.006;18.224;2023-05-10T17:52:54;16.40;;;4.60;;
57321;SDS011;43159;51.006;18.224;2023-05-10T18:02:36;17.80;;;5.60;;
57321;SDS011;43159;51.006;18.224;2023-05-10T18:12:22;12.30;;;4.40;;
57321;SDS011;43159;51.006;18.224;2023-05-10T18:22:05;14.70;;;6.00;;
57321;SDS011;43159;51.006;18.224;2023-05-10T18:31:48;15.90;;;7.00;;
57321;SDS011;43159;51.006;18.224;2023-05-10T18:41:34;14.20;;;5.90;;
57321;SDS011;43159;51.006;18.224;2023-05-10T18:51:17;15.10;;;6.40;;
57321;SDS011;43159;51.006;18.224;2023-05-10T19:00:59;12.70;;;5.30;;
57321;SDS011;43159;51.006;18.224;2023-05-10T19:10:43;12.70;;;5.70;;
57321;SDS011;43159;51.006;18.224;2023-05-10T19:20:27;14.50;;;6.90;;
57321;SDS011;43159;51.006;18.224;2023-05-10T19:30:10;14.60;;;5.10;;
57321;SDS011;43159;51.006;18.224;2023-05-10T19:39:52;18.00;;;5.40;;
57321;SDS011;43159;51.006;18.224;2023-05-10T19:49:36;10.40;;;3.10;;
57321;SDS011;43159;51.006;18.224;2023-05-10T19:59:19;10.20;;;3.80;;
57321;SDS011;43159;51.006;18.224;2023-05-10T20:09:01;9.10;;;3.10;;
57321;SDS011;43159;51.006;18.224;2023-05-10T20:18:43;10.30;;;4.10;;
57321;SDS011;43159;51.006;18.224;2023-05-10T20:28:27;15.60;;;3.60;;
57321;SDS011;43159;51.006;18.224;2023-05-10T20:38:10;15.50;;;4.50;;
57321;SDS011;43159;51.006;18.224;2023-05-10T20:47:53;10.30;;;3.90;;
57321;SDS011;43159;51.006;18.224;2023-05-10T21:04:53;12.10;;;3.80;;
57321;SDS011;43159;51.006;18.224;2023-05-10T21:14:35;17.60;;;3.80;;
57321;SDS011;43159;51.006;18.224;2023-05-10T21:24:19;13.40;;;4.50;;
57321;SDS011;43159;51.006;18.224;2023-05-10T21:34:01;17.50;;;4.60;;
57321;SDS011;43159;51.006;18.224;2023-05-10T21:43:43;13.30;;;3.20;;
57321;SDS011;43159;51.006;18.224;2023-05-10T22:07:14;8.00;;;1.90;;
57321;SDS011;43159;51.006;18.224;2023-05-10T22:16:59;10.60;;;3.70;;
57321;SDS011;43159;51.006;18.224;2023-05-10T22:26:41;12.40;;;3.50;;
57321;SDS011;43159;51.006;18.224;2023-05-10T22:36:23;10.50;;;3.50;;
57321;SDS011;43159;51.006;18.224;2023-05-10T22:46:05;6.80;;;2.90;;
57321;SDS011;43159;51.006;18.224;2023-05-10T22:55:49;11.80;;;3.40;;
57321;SDS011;43159;51.006;18.224;2023-05-10T23:05:32;10.90;;;3.60;;
57321;SDS011;43159;51.006;18.224;2023-05-10T23:15:14;11.90;;;3.90;;
57321;SDS011;43159;51.006;18.224;2023-05-10T23:24:56;9.80;;;3.20;;
57321;SDS011;43159;51.006;18.224;2023-05-10T23:34:42;16.10;;;4.60;;
57321;SDS011;43159;51.006;18.224;2023-05-10T23:44:24;9.80;;;3.50;;
57321;SDS011;43159;51.006;18.224;2023-05-10T23:54:06;10.10;;;3.70;;
